Time;durP1;ratioP1;P1;durP2;ratioP2;P2;SDS_P1;SDS_P2;PMS_P1;PMS_P2;Temp;Humidity;BMP_temperature;BMP_pressure;BME280_temperature;BME280_humidity;BME280_pressure;Samples;Min_cycle;Max_cycle;Signal;HPM_P1;HPM_P2
2022/03/06 00:02:08;;;;;;;12.00;8.90;;;;;;;;;;5033161;28;20066;-67
2022/03/06 00:04:34;;;;;;;12.98;8.77;;;;;;;;;;5035274;28;20388;-67
2022/03/06 00:06:59;;;;;;;12.52;8.93;;;;;;;;;;5040030;28;20032;-67
2022/03/06 00:09:25;;;;;;;16.23;8.98;;;;;;;;;;5033821;28;20053;-67
2022/03/06 00:11:52;;;;;;;11.82;8.13;;;;;;;;;;5032411;28;20567;-67
2022/03/06 00:14:19;;;;;;;12.73;8.32;;;;;;;;;;5037971;28;20064;-67
2022/03/06 00:16:45;;;;;;;13.02;8.32;;;;;;;;;;5034941;28;20491;-67
2022/03/06 00:19:11;;;;;;;9.75;7.93;;;;;;;;;;5037877;28;20049;-67
2022/03/06 00:21:37;;;;;;;11.10;8.38;;;;;;;;;;5039822;28;20474;-66
2022/03/06 00:24:03;;;;;;;13.88;8.43;;;;;;;;;;5039904;28;20649;-67
2022/03/06 00:26:29;;;;;;;10.55;8.32;;;;;;;;;;5035589;28;20073;-67
2022/03/06 00:28:55;;;;;;;14.88;9.55;;;;;;;;;;5032990;28;20060;-67
2022/03/06 00:31:24;;;;;;;16.15;10.93;;;;;;;;;;5035747;28;20041;-67
2022/03/06 00:33:53;;;;;;;21.38;12.25;;;;;;;;;;5042024;28;20123;-67
2022/03/06 00:36:19;;;;;;;25.35;12.52;;;;;;;;;;5038561;28;20055;-67
2022/03/06 00:38:45;;;;;;;20.67;12.93;;;;;;;;;;5036228;28;20501;-67
2022/03/06 00:41:13;;;;;;;19.48;13.45;;;;;;;;;;5036336;28;20053;-66
2022/03/06 00:43:39;;;;;;;19.17;12.35;;;;;;;;;;5042095;28;20120;-67
2022/03/06 00:46:05;;;;;;;24.83;13.40;;;;;;;;;;5033202;28;20554;-67
2022/03/06 00:48:31;;;;;;;25.77;12.25;;;;;;;;;;5042211;28;20041;-66
2022/03/06 00:50:57;;;;;;;23.08;12.15;;;;;;;;;;5042203;28;20037;-67
2022/03/06 00:53:23;;;;;;;20.02;12.35;;;;;;;;;;5036096;28;20064;-67
2022/03/06 00:55:49;;;;;;;16.42;12.52;;;;;;;;;;5036276;28;20430;-67
2022/03/06 00:58:15;;;;;;;23.15;12.75;;;;;;;;;;5038890;28;20037;-67
2022/03/06 01:00:43;;;;;;;20.05;12.93;;;;;;;;;;5038077;28;20119;-67
2022/03/06 01:03:14;;;;;;;21.98;12.38;;;;;;;;;;5041573;28;20029;-67
2022/03/06 01:05:41;;;;;;;18.65;13.02;;;;;;;;;;5036347;28;20417;-67
2022/03/06 01:08:08;;;;;;;22.02;13.05;;;;;;;;;;5043057;28;20033;-67
2022/03/06 01:10:35;;;;;;;20.83;13.20;;;;;;;;;;5033451;28;20481;-67
2022/03/06 01:13:02;;;;;;;19.50;12.32;;;;;;;;;;5037979;28;20417;-66
2022/03/06 01:15:28;;;;;;;29.08;12.82;;;;;;;;;;5037321;28;20040;-67
2022/03/06 01:17:54;;;;;;;16.60;11.82;;;;;;;;;;5040530;28;20487;-67
2022/03/06 01:20:20;;;;;;;17.00;12.07;;;;;;;;;;5038886;28;20088;-67
2022/03/06 01:22:47;;;;;;;15.35;12.32;;;;;;;;;;5035058;28;20037;-67
2022/03/06 01:25:13;;;;;;;22.27;12.60;;;;;;;;;;5039235;28;20052;-67
2022/03/06 01:27:38;;;;;;;20.20;12.88;;;;;;;;;;5042906;28;20033;-67
2022/03/06 01:30:08;;;;;;;22.15;12.88;;;;;;;;;;5037083;28;20032;-67
2022/03/06 01:32:34;;;;;;;19.05;12.45;;;;;;;;;;5043384;28;20516;-67
2022/03/06 01:35:00;;;;;;;24.58;12.77;;;;;;;;;;5040760;28;20152;-67
2022/03/06 01:37:26;;;;;;;20.65;12.50;;;;;;;;;;5036169;28;20112;-67
2022/03/06 01:39:52;;;;;;;21.73;11.90;;;;;;;;;;5036225;28;20462;-67
2022/03/06 01:42:18;;;;;;;17.67;12.43;;;;;;;;;;5034595;28;20065;-67
2022/03/06 01:44:51;;;;;;;21.15;12.73;;;;;;;;;;5038101;28;20060;-67
2022/03/06 01:47:40;;;;;;;20.63;11.95;;;;;;;;;;5037813;28;20063;-66
2022/03/06 01:50:09;;;;;;;18.23;12.10;;;;;;;;;;5037232;28;20470;-67
2022/03/06 01:52:35;;;;;;;17.02;11.13;;;;;;;;;;5040650;28;22031;-67
2022/03/06 01:55:01;;;;;;;22.40;12.32;;;;;;;;;;5035834;28;20057;-67
2022/03/06 01:57:28;;;;;;;17.70;11.90;;;;;;;;;;5041673;28;20079;-67
2022/03/06 01:59:53;;;;;;;22.05;11.95;;;;;;;;;;5033565;28;20083;-67
2022/03/06 02:02:20;;;;;;;16.63;11.30;;;;;;;;;;5037358;28;20025;-66
2022/03/06 02:04:45;;;;;;;17.50;11.70;;;;;;;;;;5040683;28;20698;-69
2022/03/06 02:07:11;;;;;;;15.75;11.05;;;;;;;;;;5040187;28;20152;-66
2022/03/06 02:09:37;;;;;;;14.68;11.27;;;;;;;;;;5042854;28;20033;-67
2022/03/06 02:12:22;;;;;;;15.70;10.20;;;;;;;;;;5036184;28;20121;-67
2022/03/06 02:14:53;;;;;;;19.35;11.75;;;;;;;;;;5035881;28;20037;-67
2022/03/06 02:17:20;;;;;;;18.67;11.25;;;;;;;;;;5033972;28;20802;-67
2022/03/06 02:19:52;;;;;;;21.30;11.52;;;;;;;;;;5035073;28;20120;-67
2022/03/06 02:22:23;;;;;;;15.65;11.00;;;;;;;;;;5038864;28;20029;-67
2022/03/06 02:24:49;;;;;;;18.92;10.45;;;;;;;;;;5036384;28;20060;-67
2022/03/06 02:27:16;;;;;;;22.70;11.27;;;;;;;;;;5037364;28;20041;-67
2022/03/06 02:29:43;;;;;;;20.67;10.73;;;;;;;;;;5039411;28;20033;-66
2022/03/06 02:32:09;;;;;;;17.58;10.85;;;;;;;;;;5036440;28;20032;-67
2022/03/06 02:34:40;;;;;;;21.17;11.60;;;;;;;;;;5044209;28;20033;-67
2022/03/06 02:37:06;;;;;;;22.40;10.98;;;;;;;;;;5035666;28;20032;-67
2022/03/06 02:39:32;;;;;;;20.05;10.88;;;;;;;;;;5039510;28;20033;-66
2022/03/06 02:41:58;;;;;;;19.33;10.68;;;;;;;;;;5042966;28;20028;-67
2022/03/06 02:44:24;;;;;;;18.02;11.75;;;;;;;;;;5039291;28;20047;-67
2022/03/06 02:46:51;;;;;;;17.23;11.20;;;;;;;;;;5033213;28;20064;-65
2022/03/06 02:49:18;;;;;;;20.27;10.88;;;;;;;;;;5037966;28;20040;-67
2022/03/06 02:51:45;;;;;;;21.23;11.30;;;;;;;;;;5033895;28;20402;-67
2022/03/06 02:54:11;;;;;;;19.48;10.95;;;;;;;;;;5032724;28;20118;-66
2022/03/06 02:56:37;;;;;;;15.60;10.20;;;;;;;;;;5040559;28;20147;-67
2022/03/06 02:59:04;;;;;;;18.08;11.25;;;;;;;;;;5035375;28;20064;-67
2022/03/06 03:01:30;;;;;;;20.70;10.65;;;;;;;;;;5038460;28;20032;-66
2022/03/06 03:03:56;;;;;;;15.40;10.30;;;;;;;;;;5037065;28;20064;-67
2022/03/06 03:06:23;;;;;;;16.10;9.88;;;;;;;;;;5035269;28;20611;-67
2022/03/06 03:08:48;;;;;;;16.95;10.55;;;;;;;;;;5032911;28;20051;-67
2022/03/06 03:11:14;;;;;;;15.32;10.70;;;;;;;;;;5033523;28;20025;-67
2022/03/06 03:13:40;;;;;;;18.10;10.98;;;;;;;;;;5034837;28;20445;-67
2022/03/06 03:16:07;;;;;;;18.73;10.80;;;;;;;;;;5031443;28;20552;-67
2022/03/06 03:18:33;;;;;;;18.48;10.13;;;;;;;;;;5035108;28;20167;-67
2022/03/06 03:20:58;;;;;;;17.27;11.48;;;;;;;;;;5032648;28;20484;-67
2022/03/06 03:23:24;;;;;;;21.25;10.52;;;;;;;;;;5034210;28;20030;-67
2022/03/06 03:25:50;;;;;;;12.20;9.55;;;;;;;;;;5032760;28;20047;-67
2022/03/06 03:28:16;;;;;;;15.90;10.10;;;;;;;;;;5032428;28;20038;-66
2022/03/06 03:30:41;;;;;;;17.67;9.73;;;;;;;;;;5036192;28;20474;-67
2022/03/06 03:33:07;;;;;;;16.88;10.05;;;;;;;;;;5031561;28;20037;-67
2022/03/06 03:35:33;;;;;;;14.93;9.50;;;;;;;;;;5034507;28;20029;-67
2022/03/06 03:37:59;;;;;;;13.75;9.57;;;;;;;;;;5033931;28;20028;-67
2022/03/06 03:40:25;;;;;;;15.10;10.07;;;;;;;;;;5030874;28;20412;-67
2022/03/06 03:42:50;;;;;;;13.02;9.63;;;;;;;;;;5035740;28;20489;-67
2022/03/06 03:45:16;;;;;;;17.70;10.50;;;;;;;;;;5041439;28;20111;-67
2022/03/06 03:47:42;;;;;;;18.73;11.32;;;;;;;;;;5040042;28;20032;-67
2022/03/06 03:50:08;;;;;;;20.38;11.93;;;;;;;;;;5034980;28;20043;-67
2022/03/06 03:52:34;;;;;;;20.65;11.32;;;;;;;;;;5031621;28;20495;-67
2022/03/06 03:55:00;;;;;;;22.10;10.85;;;;;;;;;;5040459;28;20033;-67
2022/03/06 03:57:26;;;;;;;18.75;11.15;;;;;;;;;;5036908;28;20037;-67
2022/03/06 03:59:52;;;;;;;18.25;10.93;;;;;;;;;;5034439;28;20116;-67
2022/03/06 04:02:17;;;;;;;15.93;9.88;;;;;;;;;;5040112;28;20389;-67
2022/03/06 04:04:43;;;;;;;18.23;10.10;;;;;;;;;;5035559;28;20040;-67
2022/03/06 04:07:09;;;;;;;16.40;9.60;;;;;;;;;;5036316;28;20033;-67
2022/03/06 04:09:35;;;;;;;17.13;9.95;;;;;;;;;;5032019;28;20053;-66
2022/03/06 04:12:00;;;;;;;17.33;9.32;;;;;;;;;;5038486;28;20033;-67
2022/03/06 04:14:26;;;;;;;12.80;8.95;;;;;;;;;;5036893;28;20037;-66
2022/03/06 04:16:53;;;;;;;16.10;8.70;;;;;;;;;;5041165;28;20036;-66
2022/03/06 04:19:19;;;;;;;13.40;8.75;;;;;;;;;;5036172;28;20038;-66
2022/03/06 04:21:45;;;;;;;14.57;8.48;;;;;;;;;;5041944;28;20044;-66
2022/03/06 04:24:11;;;;;;;11.07;8.75;;;;;;;;;;5036636;28;20394;-66
2022/03/06 04:26:37;;;;;;;14.70;9.23;;;;;;;;;;5038605;28;20047;-67
2022/03/06 04:29:03;;;;;;;12.98;9.35;;;;;;;;;;5038863;28;20474;-66
2022/03/06 04:31:28;;;;;;;11.13;8.48;;;;;;;;;;5042310;28;20061;-66
2022/03/06 04:33:54;;;;;;;15.90;8.55;;;;;;;;;;5034355;28;20065;-67
2022/03/06 04:36:20;;;;;;;10.73;8.68;;;;;;;;;;5034980;28;20084;-67
2022/03/06 04:38:46;;;;;;;15.57;8.60;;;;;;;;;;5038068;28;20032;-66
2022/03/06 04:41:11;;;;;;;11.38;8.38;;;;;;;;;;5038396;28;20048;-67
2022/03/06 04:43:37;;;;;;;13.15;8.85;;;;;;;;;;5043141;28;20124;-66
2022/03/06 04:46:04;;;;;;;13.40;8.98;;;;;;;;;;5041428;28;20037;-67
2022/03/06 04:48:30;;;;;;;15.45;8.82;;;;;;;;;;5040698;28;20079;-66
2022/03/06 04:50:56;;;;;;;13.38;8.52;;;;;;;;;;5046068;28;20033;-66
2022/03/06 04:53:21;;;;;;;13.73;8.93;;;;;;;;;;5040263;28;20758;-67
2022/03/06 04:55:47;;;;;;;18.65;8.60;;;;;;;;;;5035170;28;20033;-68
2022/03/06 04:58:13;;;;;;;13.10;8.57;;;;;;;;;;5039341;28;20048;-66
2022/03/06 05:00:39;;;;;;;13.00;9.23;;;;;;;;;;5042298;28;20051;-66
2022/03/06 05:03:05;;;;;;;12.88;9.55;;;;;;;;;;5040446;28;20482;-66
2022/03/06 05:05:31;;;;;;;15.02;9.27;;;;;;;;;;5042303;28;20083;-65
2022/03/06 05:07:56;;;;;;;13.18;9.05;;;;;;;;;;5034973;28;20029;-66
2022/03/06 05:10:22;;;;;;;15.02;9.45;;;;;;;;;;5040735;28;20546;-67
2022/03/06 05:12:48;;;;;;;15.75;9.98;;;;;;;;;;5038107;28;20041;-66
2022/03/06 05:15:14;;;;;;;14.65;9.85;;;;;;;;;;5033909;28;20651;-66
2022/03/06 05:17:40;;;;;;;15.00;9.40;;;;;;;;;;5033762;28;20025;-66
2022/03/06 05:20:07;;;;;;;11.43;8.95;;;;;;;;;;5034459;28;20041;-66
2022/03/06 05:22:33;;;;;;;13.70;8.82;;;;;;;;;;5036629;28;20489;-66
2022/03/06 05:24:59;;;;;;;14.32;8.65;;;;;;;;;;5041523;28;20056;-66
2022/03/06 05:27:26;;;;;;;15.65;9.10;;;;;;;;;;5033985;28;21103;-66
2022/03/06 05:29:51;;;;;;;15.73;9.32;;;;;;;;;;5039017;28;20033;-66
2022/03/06 05:32:17;;;;;;;16.45;10.02;;;;;;;;;;5037791;28;20040;-66
2022/03/06 05:34:43;;;;;;;17.08;9.45;;;;;;;;;;5035260;28;20033;-66
2022/03/06 05:37:09;;;;;;;17.20;9.48;;;;;;;;;;5042479;28;20037;-66
2022/03/06 05:39:35;;;;;;;11.57;8.32;;;;;;;;;;5035306;28;20030;-66
2022/03/06 05:42:00;;;;;;;15.55;9.43;;;;;;;;;;5036774;28;20029;-66
2022/03/06 05:44:26;;;;;;;17.08;9.85;;;;;;;;;;5035849;28;20053;-66
2022/03/06 05:46:52;;;;;;;16.08;9.85;;;;;;;;;;5037523;28;20390;-65
2022/03/06 05:49:18;;;;;;;16.02;9.07;;;;;;;;;;5035700;28;20040;-66
2022/03/06 05:51:44;;;;;;;16.25;9.50;;;;;;;;;;5039652;28;20033;-66
2022/03/06 05:54:10;;;;;;;12.05;9.02;;;;;;;;;;5039995;28;20065;-66
2022/03/06 05:56:39;;;;;;;13.48;9.75;;;;;;;;;;5041341;28;20086;-66
2022/03/06 05:59:05;;;;;;;13.75;8.73;;;;;;;;;;5033372;28;20079;-66
2022/03/06 06:01:31;;;;;;;12.00;9.00;;;;;;;;;;5036312;28;20037;-62
2022/03/06 06:03:57;;;;;;;11.95;8.88;;;;;;;;;;5036829;28;20037;-66
2022/03/06 06:06:24;;;;;;;12.15;9.32;;;;;;;;;;5034041;28;20047;-66
2022/03/06 06:08:50;;;;;;;16.00;9.65;;;;;;;;;;5038586;28;20478;-64
2022/03/06 06:11:17;;;;;;;13.43;9.52;;;;;;;;;;5039078;28;20051;-66
2022/03/06 06:13:43;;;;;;;10.48;8.77;;;;;;;;;;5038158;28;20481;-66
2022/03/06 06:16:08;;;;;;;13.25;8.52;;;;;;;;;;5034257;28;20087;-66
2022/03/06 06:18:34;;;;;;;15.30;9.77;;;;;;;;;;5036152;28;20499;-66
2022/03/06 06:21:00;;;;;;;15.35;9.35;;;;;;;;;;5033583;28;20037;-66
2022/03/06 06:23:26;;;;;;;10.35;8.68;;;;;;;;;;5038365;28;20040;-66
2022/03/06 06:25:51;;;;;;;13.95;8.65;;;;;;;;;;5034732;28;20077;-66
2022/03/06 06:28:17;;;;;;;11.48;9.45;;;;;;;;;;5039134;28;20038;-65
2022/03/06 06:30:43;;;;;;;11.05;9.43;;;;;;;;;;5040410;28;20529;-65
2022/03/06 06:33:09;;;;;;;20.02;10.50;;;;;;;;;;5035030;28;20041;-66
2022/03/06 06:35:35;;;;;;;14.52;9.88;;;;;;;;;;5033182;28;20059;-65
2022/03/06 06:38:01;;;;;;;12.80;9.55;;;;;;;;;;5034845;28;20068;-66
2022/03/06 06:40:27;;;;;;;12.80;9.02;;;;;;;;;;5033892;28;20044;-66
2022/03/06 06:42:53;;;;;;;17.52;10.10;;;;;;;;;;5035246;28;20087;-65
2022/03/06 06:45:18;;;;;;;13.57;9.40;;;;;;;;;;5039562;28;20056;-66
2022/03/06 06:47:44;;;;;;;17.48;9.10;;;;;;;;;;5031928;28;20541;-66
2022/03/06 06:50:10;;;;;;;14.55;9.20;;;;;;;;;;5037833;28;20034;-66
2022/03/06 06:52:36;;;;;;;15.65;9.73;;;;;;;;;;5034129;28;20040;-66
2022/03/06 06:55:03;;;;;;;18.60;12.07;;;;;;;;;;5037903;28;20478;-66
2022/03/06 06:57:29;;;;;;;23.25;11.63;;;;;;;;;;5032560;28;20037;-66
2022/03/06 06:59:55;;;;;;;14.32;9.95;;;;;;;;;;5034703;28;20497;-66
2022/03/06 07:02:21;;;;;;;20.42;10.13;;;;;;;;;;5039318;28;20028;-65
2022/03/06 07:04:47;;;;;;;10.68;8.93;;;;;;;;;;5045187;28;20372;-66
2022/03/06 07:07:12;;;;;;;12.93;8.90;;;;;;;;;;5040768;28;20037;-66
2022/03/06 07:09:38;;;;;;;16.15;10.20;;;;;;;;;;5040368;28;20493;-66
2022/03/06 07:12:06;;;;;;;16.98;10.52;;;;;;;;;;5037970;28;20025;-66
2022/03/06 07:14:32;;;;;;;13.52;9.27;;;;;;;;;;5036833;28;20152;-66
2022/03/06 07:16:59;;;;;;;15.00;8.52;;;;;;;;;;5031535;28;20022;-65
2022/03/06 07:19:24;;;;;;;12.88;8.90;;;;;;;;;;5037710;28;20469;-66
2022/03/06 07:21:50;;;;;;;16.95;9.75;;;;;;;;;;5036825;28;20040;-66
2022/03/06 07:24:16;;;;;;;15.68;9.48;;;;;;;;;;5038931;28;20478;-66
2022/03/06 07:26:42;;;;;;;14.52;9.95;;;;;;;;;;5037579;28;20041;-66
2022/03/06 07:29:08;;;;;;;15.95;9.93;;;;;;;;;;5031353;28;20037;-66
2022/03/06 07:31:34;;;;;;;12.98;9.45;;;;;;;;;;5033035;28;20029;-65
2022/03/06 07:34:00;;;;;;;19.85;10.57;;;;;;;;;;5037085;28;20033;-66
2022/03/06 07:36:26;;;;;;;14.85;9.50;;;;;;;;;;5033571;28;20037;-66
2022/03/06 07:38:52;;;;;;;14.75;9.05;;;;;;;;;;5033399;28;20513;-65
2022/03/06 07:41:18;;;;;;;18.95;9.25;;;;;;;;;;5037912;28;20029;-66
2022/03/06 07:43:44;;;;;;;14.07;9.35;;;;;;;;;;5040610;28;20032;-66
2022/03/06 07:46:10;;;;;;;15.73;9.05;;;;;;;;;;5037530;28;20032;-66
2022/03/06 07:48:36;;;;;;;12.60;8.80;;;;;;;;;;5045021;28;20060;-65
2022/03/06 07:51:02;;;;;;;12.90;8.60;;;;;;;;;;5036336;28;20052;-66
2022/03/06 07:53:27;;;;;;;16.13;8.98;;;;;;;;;;5033481;28;20025;-66
2022/03/06 07:55:53;;;;;;;16.65;9.02;;;;;;;;;;5037668;28;20087;-66
2022/03/06 07:58:19;;;;;;;13.45;8.93;;;;;;;;;;5034052;28;20474;-66
2022/03/06 08:00:45;;;;;;;15.32;9.20;;;;;;;;;;5038996;28;20437;-66
2022/03/06 08:03:10;;;;;;;14.25;8.48;;;;;;;;;;5036154;28;20041;-66
2022/03/06 08:05:36;;;;;;;14.25;8.82;;;;;;;;;;5037610;28;20032;-66
2022/03/06 08:08:02;;;;;;;15.10;8.57;;;;;;;;;;5036740;28;20034;-66
2022/03/06 08:10:28;;;;;;;12.90;9.18;;;;;;;;;;5036380;28;21188;-66
2022/03/06 08:12:54;;;;;;;14.32;9.13;;;;;;;;;;5037691;28;20036;-66
2022/03/06 08:15:19;;;;;;;11.38;8.27;;;;;;;;;;5034760;28;20076;-67
2022/03/06 08:17:45;;;;;;;10.63;8.77;;;;;;;;;;5032583;28;20033;-66
2022/03/06 08:20:12;;;;;;;12.27;8.48;;;;;;;;;;5034049;28;20025;-65
2022/03/06 08:22:37;;;;;;;14.05;8.75;;;;;;;;;;5034837;28;20097;-67
2022/03/06 08:25:04;;;;;;;13.25;8.98;;;;;;;;;;5035296;28;20128;-67
2022/03/06 08:27:32;;;;;;;11.90;8.60;;;;;;;;;;5039644;28;20415;-67
2022/03/06 08:30:01;;;;;;;11.45;7.97;;;;;;;;;;5033005;28;20555;-66
2022/03/06 08:32:29;;;;;;;12.30;7.82;;;;;;;;;;5031995;28;20087;-67
2022/03/06 08:34:55;;;;;;;19.60;8.48;;;;;;;;;;5037104;28;20558;-67
2022/03/06 08:37:21;;;;;;;12.38;7.45;;;;;;;;;;5030401;28;20068;-67
2022/03/06 08:39:48;;;;;;;11.00;7.85;;;;;;;;;;5036329;28;20478;-66
2022/03/06 08:42:15;;;;;;;14.90;8.48;;;;;;;;;;5034592;28;20036;-66
2022/03/06 08:44:41;;;;;;;15.43;8.50;;;;;;;;;;5036016;28;20056;-66
2022/03/06 08:47:08;;;;;;;14.45;9.65;;;;;;;;;;5036643;28;20025;-66
2022/03/06 08:49:34;;;;;;;11.95;8.88;;;;;;;;;;5033824;28;20044;-65
2022/03/06 08:51:59;;;;;;;15.65;10.40;;;;;;;;;;5033163;28;20069;-67
2022/03/06 08:54:25;;;;;;;15.88;9.07;;;;;;;;;;5032049;28;20072;-67
2022/03/06 08:56:51;;;;;;;16.13;8.63;;;;;;;;;;5036398;28;20028;-65
2022/03/06 08:59:20;;;;;;;12.43;8.25;;;;;;;;;;5034438;28;20021;-67
2022/03/06 09:01:47;;;;;;;12.95;8.75;;;;;;;;;;5043004;28;20032;-67
2022/03/06 09:04:13;;;;;;;12.52;8.10;;;;;;;;;;5035270;28;20029;-65
2022/03/06 09:06:40;;;;;;;11.35;8.30;;;;;;;;;;5036585;28;20728;-66
2022/03/06 09:09:06;;;;;;;14.18;7.72;;;;;;;;;;5039778;28;20033;-66
2022/03/06 09:11:32;;;;;;;11.68;8.43;;;;;;;;;;5035885;28;20021;-65
2022/03/06 09:13:59;;;;;;;11.75;7.70;;;;;;;;;;5044629;28;20044;-66
2022/03/06 09:16:25;;;;;;;11.82;7.65;;;;;;;;;;5041291;28;20048;-65
2022/03/06 09:18:51;;;;;;;10.15;8.35;;;;;;;;;;5041615;28;20032;-65
2022/03/06 09:21:17;;;;;;;13.65;8.90;;;;;;;;;;5037838;28;20041;-66
2022/03/06 09:23:43;;;;;;;9.77;8.10;;;;;;;;;;5038869;28;20033;-66
2022/03/06 09:26:09;;;;;;;14.73;9.23;;;;;;;;;;5035543;28;20084;-66
2022/03/06 09:28:34;;;;;;;12.60;9.23;;;;;;;;;;5039395;28;20081;-66
2022/03/06 09:31:00;;;;;;;12.32;8.60;;;;;;;;;;5040941;28;20539;-66
2022/03/06 09:33:26;;;;;;;13.52;9.00;;;;;;;;;;5039116;28;20028;-66
2022/03/06 09:35:51;;;;;;;12.27;8.95;;;;;;;;;;5038885;28;20083;-66
2022/03/06 09:38:17;;;;;;;16.80;10.98;;;;;;;;;;5034230;28;20599;-66
2022/03/06 09:40:44;;;;;;;11.95;9.30;;;;;;;;;;5033605;28;20397;-66
2022/03/06 09:43:15;;;;;;;16.75;8.85;;;;;;;;;;5039794;28;20060;-66
2022/03/06 09:45:42;;;;;;;15.48;10.20;;;;;;;;;;5035579;28;20025;-66
2022/03/06 09:48:10;;;;;;;13.95;9.73;;;;;;;;;;5039420;28;20072;-66
2022/03/06 09:50:36;;;;;;;15.18;9.75;;;;;;;;;;5039026;28;20068;-66
2022/03/06 09:53:02;;;;;;;15.82;9.60;;;;;;;;;;5034298;28;20048;-65
2022/03/06 09:55:29;;;;;;;13.40;9.48;;;;;;;;;;5039688;28;20489;-66
2022/03/06 09:57:57;;;;;;;13.65;9.52;;;;;;;;;;5037288;28;20044;-66
2022/03/06 10:00:24;;;;;;;11.30;9.70;;;;;;;;;;5038136;28;20037;-66
2022/03/06 10:03:00;;;;;;;13.27;9.20;;;;;;;;;;5035544;28;20031;-66
2022/03/06 10:05:39;;;;;;;17.00;10.02;;;;;;;;;;5041047;28;20411;-65
2022/03/06 10:08:17;;;;;;;15.00;9.82;;;;;;;;;;5036117;28;20044;-66
2022/03/06 10:10:43;;;;;;;12.95;9.27;;;;;;;;;;5036103;28;20033;-66
2022/03/06 10:13:39;;;;;;;12.75;9.85;;;;;;;;;;5033563;28;20033;-66
2022/03/06 10:16:19;;;;;;;15.60;10.27;;;;;;;;;;5033726;28;20077;-66
2022/03/06 10:18:48;;;;;;;13.43;9.63;;;;;;;;;;5037958;28;20508;-66
2022/03/06 10:21:20;;;;;;;15.70;10.90;;;;;;;;;;5035165;28;20040;-66
2022/03/06 10:23:49;;;;;;;15.25;10.98;;;;;;;;;;5033206;28;20041;-66
2022/03/06 10:26:17;;;;;;;11.88;10.63;;;;;;;;;;5033477;28;20057;-65
2022/03/06 10:28:50;;;;;;;14.15;10.63;;;;;;;;;;5031933;28;20033;-66
2022/03/06 10:31:17;;;;;;;;;;;;;;;;;;5039409;28;20645;-66
2022/03/06 10:34:02;;;;;;;12.88;10.15;;;;;;;;;;5036082;28;19928;-66
2022/03/06 10:36:46;;;;;;;18.48;10.40;;;;;;;;;;5035791;28;20043;-66
2022/03/06 10:39:17;;;;;;;17.92;10.15;;;;;;;;;;5038472;28;20521;-66
2022/03/06 10:41:47;;;;;;;20.33;12.18;;;;;;;;;;5038463;28;20095;-66
2022/03/06 10:44:15;;;;;;;15.35;11.32;;;;;;;;;;5039578;28;20124;-65
2022/03/06 10:46:42;;;;;;;15.48;11.65;;;;;;;;;;5036821;28;20033;-66
2022/03/06 10:49:17;;;;;;;17.08;10.82;;;;;;;;;;5036913;28;20033;-66
2022/03/06 10:51:49;;;;;;;12.27;10.18;;;;;;;;;;5032115;28;20433;-66
2022/03/06 10:54:16;;;;;;;14.38;11.02;;;;;;;;;;5029505;28;20064;-65
2022/03/06 10:56:43;;;;;;;14.05;10.05;;;;;;;;;;5036419;28;20040;-65
2022/03/06 10:59:10;;;;;;;18.23;10.50;;;;;;;;;;5034988;28;20043;-65
2022/03/06 11:01:38;;;;;;;19.08;11.50;;;;;;;;;;5032550;28;20393;-65
2022/03/06 11:04:06;;;;;;;18.30;11.55;;;;;;;;;;5029874;28;20029;-65
2022/03/06 11:06:40;;;;;;;14.93;11.63;;;;;;;;;;5035968;28;20528;-65
2022/03/06 11:09:18;;;;;;;20.90;12.02;;;;;;;;;;5033605;28;20044;-65
2022/03/06 11:11:46;;;;;;;23.40;12.90;;;;;;;;;;5030975;28;20379;-65
2022/03/06 11:14:12;;;;;;;19.15;11.50;;;;;;;;;;5034547;28;20030;-64
2022/03/06 11:16:39;;;;;;;13.60;11.20;;;;;;;;;;5036296;28;20473;-65
2022/03/06 11:19:06;;;;;;;15.48;11.65;;;;;;;;;;5033878;28;20025;-66
2022/03/06 11:21:37;;;;;;;17.63;12.02;;;;;;;;;;5034243;28;20037;-65
2022/03/06 11:24:11;;;;;;;23.65;13.95;;;;;;;;;;5032749;28;20032;-66
2022/03/06 11:26:55;;;;;;;19.75;12.50;;;;;;;;;;5034602;28;20056;-65
2022/03/06 11:30:04;;;;;;;15.25;10.75;;;;;;;;;;5030770;28;20052;-66
2022/03/06 11:32:33;;;;;;;17.92;11.00;;;;;;;;;;5014721;28;21980;-65
2022/03/06 11:35:06;;;;;;;18.83;12.52;;;;;;;;;;5017800;28;20037;-65
2022/03/06 11:38:05;;;;;;;22.95;12.27;;;;;;;;;;5015862;28;20052;-65
2022/03/06 11:40:40;;;;;;;15.50;11.25;;;;;;;;;;4974632;28;20058;-65
2022/03/06 11:43:08;;;;;;;15.63;10.27;;;;;;;;;;4976086;28;20046;-66
2022/03/06 11:46:03;;;;;;;16.33;10.02;;;;;;;;;;4979294;28;20030;-65
2022/03/06 11:48:34;;;;;;;18.20;10.88;;;;;;;;;;4966866;28;20426;-66
2022/03/06 11:51:15;;;;;;;16.20;10.48;;;;;;;;;;4978823;28;20097;-65
2022/03/06 11:53:47;;;;;;;14.73;10.35;;;;;;;;;;4976921;28;20072;-65
2022/03/06 11:56:31;;;;;;;16.35;10.82;;;;;;;;;;4979805;28;21109;-65
2022/03/06 11:58:58;;;;;;;18.65;12.02;;;;;;;;;;4981895;28;20589;-66
2022/03/06 12:01:28;;;;;;;16.67;12.02;;;;;;;;;;4981554;28;20037;-65
2022/03/06 12:03:55;;;;;;;16.30;11.98;;;;;;;;;;4985204;28;20085;-65
2022/03/06 12:06:22;;;;;;;17.27;12.00;;;;;;;;;;4970850;28;20059;-66
2022/03/06 12:08:48;;;;;;;16.60;10.90;;;;;;;;;;4958445;28;20094;-66
2022/03/06 12:11:14;;;;;;;17.02;10.52;;;;;;;;;;4959470;28;20039;-65
2022/03/06 12:13:40;;;;;;;16.23;10.77;;;;;;;;;;4962689;28;20042;-65
2022/03/06 12:16:12;;;;;;;15.70;10.13;;;;;;;;;;4995137;28;20045;-66
2022/03/06 12:18:39;;;;;;;17.63;10.40;;;;;;;;;;5033821;28;20053;-66
2022/03/06 12:21:23;;;;;;;12.98;9.82;;;;;;;;;;5037225;28;20041;-65
2022/03/06 12:24:09;;;;;;;15.20;10.57;;;;;;;;;;5036132;28;20470;-66
2022/03/06 12:26:45;;;;;;;15.07;10.15;;;;;;;;;;5034415;28;20075;-66
2022/03/06 12:29:45;;;;;;;14.65;9.80;;;;;;;;;;5033444;28;20460;-66
2022/03/06 12:32:29;;;;;;;11.25;9.30;;;;;;;;;;5035557;28;20040;-65
2022/03/06 12:34:58;;;;;;;16.42;10.23;;;;;;;;;;5034940;28;20036;-65
2022/03/06 12:37:28;;;;;;;15.07;11.07;;;;;;;;;;5041021;28;20025;-65
2022/03/06 12:39:54;;;;;;;18.25;10.65;;;;;;;;;;5041851;28;20048;-65
2022/03/06 12:42:27;;;;;;;11.80;10.60;;;;;;;;;;5040385;28;20096;-66
2022/03/06 12:44:59;;;;;;;14.38;10.15;;;;;;;;;;5036862;28;20278;-65
2022/03/06 12:47:26;;;;;;;15.80;10.45;;;;;;;;;;5037713;28;20030;-65
2022/03/06 12:49:53;;;;;;;12.50;10.30;;;;;;;;;;5038951;28;20025;-65
2022/03/06 12:52:21;;;;;;;14.38;10.77;;;;;;;;;;5038558;28;20124;-65
2022/03/06 12:54:50;;;;;;;16.80;10.77;;;;;;;;;;5039245;28;20033;-65
2022/03/06 12:57:18;;;;;;;15.52;10.77;;;;;;;;;;5039000;28;20021;-65
2022/03/06 12:59:46;;;;;;;15.80;11.77;;;;;;;;;;5032037;28;20063;-65
2022/03/06 13:02:12;;;;;;;16.05;12.02;;;;;;;;;;5038941;28;20029;-65
2022/03/06 13:04:38;;;;;;;18.27;11.07;;;;;;;;;;5039230;28;20033;-65
2022/03/06 13:07:07;;;;;;;22.00;12.68;;;;;;;;;;5039603;28;20040;-65
2022/03/06 13:09:36;;;;;;;18.27;10.98;;;;;;;;;;5041085;28;20044;-64
2022/03/06 13:12:04;;;;;;;14.75;11.85;;;;;;;;;;5039049;28;20402;-65
2022/03/06 13:14:34;;;;;;;15.20;10.82;;;;;;;;;;5033133;28;20029;-65
2022/03/06 13:17:06;;;;;;;16.40;10.27;;;;;;;;;;5035423;28;20040;-65
2022/03/06 13:19:46;;;;;;;15.68;10.63;;;;;;;;;;5033578;28;20040;-65
2022/03/06 13:22:18;;;;;;;13.45;9.65;;;;;;;;;;5041199;28;20044;-65
2022/03/06 13:24:48;;;;;;;;;;;;;;;;;;5040227;28;20069;-65
2022/03/06 13:27:21;;;;;;;11.65;10.32;;;;;;;;;;5043906;28;19925;-65
2022/03/06 13:30:17;;;;;;;13.52;10.20;;;;;;;;;;5035252;28;20121;-65
2022/03/06 13:32:48;;;;;;;13.18;10.10;;;;;;;;;;5039720;28;20072;-65
2022/03/06 13:35:39;;;;;;;13.45;10.82;;;;;;;;;;5037257;28;20025;-65
2022/03/06 13:38:08;;;;;;;16.55;10.98;;;;;;;;;;5038190;28;20386;-65
2022/03/06 13:40:36;;;;;;;13.45;10.18;;;;;;;;;;5036558;28;20037;-65
2022/03/06 13:43:02;;;;;;;15.45;10.27;;;;;;;;;;5036404;28;20026;-65
2022/03/06 13:45:28;;;;;;;14.57;9.90;;;;;;;;;;5036517;28;20029;-65
2022/03/06 13:47:57;;;;;;;16.02;10.88;;;;;;;;;;5032430;28;20059;-65
2022/03/06 13:50:29;;;;;;;15.77;10.00;;;;;;;;;;5038222;28;20136;-65
2022/03/06 13:52:56;;;;;;;16.98;11.48;;;;;;;;;;5037391;28;20104;-65
2022/03/06 13:55:24;;;;;;;13.70;9.98;;;;;;;;;;5034374;28;20531;-66
2022/03/06 13:58:00;;;;;;;14.93;10.38;;;;;;;;;;5037641;28;20045;-66
2022/03/06 14:00:29;;;;;;;15.95;10.48;;;;;;;;;;5038709;28;20043;-66
2022/03/06 14:03:01;;;;;;;19.63;10.68;;;;;;;;;;5040992;28;20799;-65
2022/03/06 14:05:30;;;;;;;14.80;10.15;;;;;;;;;;5043108;28;20033;-66
2022/03/06 14:08:12;;;;;;;16.23;10.88;;;;;;;;;;5033707;28;20595;-65
2022/03/06 14:10:39;;;;;;;12.40;9.90;;;;;;;;;;5036699;28;20064;-65
2022/03/06 14:13:19;;;;;;;13.70;10.10;;;;;;;;;;5036624;28;20100;-65
2022/03/06 14:15:45;;;;;;;12.82;9.35;;;;;;;;;;5041008;28;20035;-66
2022/03/06 14:18:10;;;;;;;21.42;10.73;;;;;;;;;;5036197;28;20037;-66
2022/03/06 14:20:46;;;;;;;17.27;10.93;;;;;;;;;;5032277;28;20124;-65
2022/03/06 14:23:11;;;;;;;17.42;10.80;;;;;;;;;;5040037;28;20044;-65
2022/03/06 14:25:37;;;;;;;13.85;10.10;;;;;;;;;;5031753;28;20048;-65
2022/03/06 14:28:03;;;;;;;14.48;10.18;;;;;;;;;;5032902;28;20086;-65
2022/03/06 14:30:29;;;;;;;21.98;9.82;;;;;;;;;;5037305;28;20139;-65